createdAt,value
2024-05-09T00:02:34.717Z,100507.28
2024-05-09T00:07:39.908Z,100510.75
2024-05-09T00:12:44.774Z,100509.25
2024-05-09T00:17:52.654Z,100506.16
2024-05-09T00:22:57.731Z,100513.69
2024-05-09T00:28:02.641Z,100504.59
2024-05-09T00:33:11.440Z,100508.03
2024-05-09T00:38:16.917Z,100499.84
2024-05-09T00:43:22.230Z,100499.19
2024-05-09T00:48:30.550Z,100498.97
2024-05-09T00:53:36.907Z,100495.97
2024-05-09T00:58:42.653Z,100489.94
2024-05-09T01:03:51.403Z,100489.31
2024-05-09T01:08:56.540Z,100496.47
2024-05-09T01:14:01.476Z,100487.09
2024-05-09T01:19:16.927Z,100489.53
2024-05-09T01:24:24.565Z,100489.16
2024-05-09T01:29:29.534Z,100493.09
2024-05-09T01:34:34.600Z,100493.72
2024-05-09T01:39:42.400Z,100487.84
2024-05-09T01:44:47.481Z,100484.03
2024-05-09T01:49:52.681Z,100485.25
2024-05-09T01:55:02.803Z,100479.47
2024-05-09T02:00:15.582Z,100472.69
2024-05-09T02:05:20.990Z,100476.09
2024-05-09T02:10:32.543Z,100474.97
2024-05-09T02:15:38.646Z,100480.09
2024-05-09T02:20:44.418Z,100488.19
2024-05-09T02:25:52.201Z,100481.75
2024-05-09T02:30:57.328Z,100488.00
2024-05-09T02:36:02.413Z,100492.28
2024-05-09T02:41:11.669Z,100484.63
2024-05-09T02:46:16.875Z,100481.38
2024-05-09T02:51:21.716Z,100481.00
2024-05-09T02:56:29.298Z,100484.00
2024-05-09T03:01:34.500Z,100481.25
2024-05-09T03:06:43.138Z,100482.88
2024-05-09T03:11:50.780Z,100486.25
2024-05-09T03:16:55.999Z,100487.22
2024-05-09T03:22:01.620Z,100488.41
2024-05-09T03:27:09.456Z,100483.75
2024-05-09T03:32:14.569Z,100479.16
2024-05-09T03:37:19.664Z,100483.19
2024-05-09T03:42:27.129Z,100484.16
2024-05-09T03:47:35.579Z,100480.47
2024-05-09T03:52:41.051Z,100484.16
2024-05-09T03:57:48.833Z,100478.75
2024-05-09T04:02:53.752Z,100484.34
2024-05-09T04:07:58.927Z,100489.75
2024-05-09T04:13:06.719Z,100489.53
2024-05-09T04:18:13.321Z,100487.38
2024-05-09T04:23:18.458Z,100483.00
2024-05-09T04:28:26.385Z,100490.81
2024-05-09T04:33:32.380Z,100501.72
2024-05-09T04:38:37.532Z,100508.25
2024-05-09T04:43:45.361Z,100505.84
2024-05-09T04:48:50.326Z,100508.25
2024-05-09T04:53:55.254Z,100513.97
2024-05-09T04:59:02.900Z,100516.00
2024-05-09T05:04:08.026Z,100514.78
2024-05-09T05:09:13.153Z,100506.81
2024-05-09T05:14:20.915Z,100508.75
2024-05-09T05:19:25.984Z,100517.66
2024-05-09T05:24:31.148Z,100520.69
2024-05-09T05:29:38.834Z,100529.91
2024-05-09T05:34:43.868Z,100529.66
2024-05-09T05:39:49.161Z,100524.59
2024-05-09T05:44:56.849Z,100531.72
2024-05-09T05:50:01.824Z,100534.13
2024-05-09T05:55:07.611Z,100547.25
2024-05-09T06:00:25.415Z,100541.94
2024-05-09T06:05:35.248Z,100545.38
2024-05-09T06:10:41.366Z,100545.28
2024-05-09T06:15:49.519Z,100542.56
2024-05-09T06:20:55.138Z,100541.84
2024-05-09T06:26:00.306Z,100541.81
2024-05-09T06:31:07.848Z,100541.09
2024-05-09T06:36:13.464Z,100550.28
2024-05-09T06:41:18.415Z,100553.59
2024-05-09T06:46:26.603Z,100556.50
2024-05-09T06:51:31.451Z,100561.03
2024-05-09T06:56:36.490Z,100564.16
2024-05-09T07:01:44.190Z,100566.97
2024-05-09T07:06:49.085Z,100572.44
2024-05-09T07:11:54.082Z,100570.66
2024-05-09T07:17:01.776Z,100570.03
2024-05-09T07:22:07.103Z,100559.97
2024-05-09T07:27:11.979Z,100567.94
2024-05-09T07:32:19.696Z,100564.97
2024-05-09T07:37:24.659Z,100565.91
2024-05-09T07:42:29.517Z,100562.91
2024-05-09T07:48:57.784Z,100560.34
2024-05-09T07:53:36.102Z,100553.94
2024-05-09T07:58:27.821Z,100554.41
2024-05-09T08:03:35.725Z,100554.81
2024-05-09T08:08:40.860Z,100549.25
2024-05-09T08:13:46.002Z,100550.94
2024-05-09T08:18:53.586Z,100547.91
2024-05-09T08:23:58.554Z,100546.22
2024-05-09T08:29:03.397Z,100548.78
2024-05-09T08:34:11.980Z,100554.69
2024-05-09T08:39:17.016Z,100547.00
2024-05-09T08:44:23.488Z,100547.72
2024-05-09T08:49:32.890Z,100539.75
2024-05-09T08:54:38.312Z,100543.91
2024-05-09T08:59:50.984Z,100534.91
2024-05-09T09:05:04.459Z,100530.66
2024-05-09T09:10:15.197Z,100533.28
2024-05-09T09:15:23.487Z,100531.00
2024-05-09T09:20:36.422Z,100532.19
2024-05-09T09:25:42.320Z,100521.38
2024-05-09T09:30:48.281Z,100521.09
2024-05-09T09:35:55.825Z,100522.81
2024-05-09T09:41:02.000Z,100521.47
2024-05-09T09:46:10.807Z,100521.81
2024-05-09T09:51:20.243Z,100517.09
2024-05-09T09:56:26.534Z,100507.03
2024-05-09T10:01:31.528Z,100506.19
2024-05-09T10:06:42.626Z,100503.84
2024-05-09T10:11:51.982Z,100501.50
2024-05-09T10:17:06.985Z,100500.47
2024-05-09T10:22:14.749Z,100502.19
2024-05-09T10:27:21.464Z,100500.88
2024-05-09T10:32:26.700Z,100484.28
2024-05-09T10:37:34.874Z,100480.22
2024-05-09T10:42:41.979Z,100486.22
2024-05-09T10:47:47.452Z,100467.47
2024-05-09T10:52:55.476Z,100471.53
2024-05-09T10:58:00.644Z,100461.56
2024-05-09T11:03:06.040Z,100458.13
2024-05-09T11:08:14.164Z,100456.41
2024-05-09T11:13:29.184Z,100459.75
2024-05-09T11:18:38.116Z,100439.78
2024-05-09T11:23:46.788Z,100440.97
2024-05-09T11:28:52.642Z,100434.97
2024-05-09T11:33:57.707Z,100431.97
2024-05-09T11:39:05.583Z,100425.88
2024-05-09T11:44:10.782Z,100413.94
2024-05-09T11:49:15.736Z,100410.84
2024-05-09T11:54:23.279Z,100412.00
2024-05-09T11:59:28.164Z,100399.16
2024-05-09T12:04:33.267Z,100381.63
2024-05-09T12:09:40.877Z,100385.28
2024-05-09T12:14:45.823Z,100375.50
2024-05-09T12:19:52.686Z,100386.66
2024-05-09T12:25:00.253Z,100383.50
2024-05-09T12:30:07.252Z,100381.63
2024-05-09T12:35:16.266Z,100372.94
2024-05-09T12:40:34.006Z,100372.25
2024-05-09T12:45:42.266Z,100361.16
2024-05-09T12:50:47.199Z,100355.53
2024-05-09T12:55:59.921Z,100345.38
2024-05-09T13:01:07.710Z,100350.38
2024-05-09T13:06:12.985Z,100340.25
2024-05-09T13:11:20.531Z,100325.25
2024-05-09T13:16:25.637Z,100317.06
2024-05-09T13:21:30.638Z,100320.22
2024-05-09T13:26:38.182Z,100326.72
2024-05-09T13:31:43.060Z,100320.50
2024-05-09T13:36:47.943Z,100319.00
2024-05-09T13:41:55.459Z,100311.28
2024-05-09T13:47:00.847Z,100300.44
2024-05-09T13:52:05.830Z,100298.94
2024-05-09T13:57:13.368Z,100295.59
2024-05-09T14:02:18.622Z,100292.06
2024-05-09T14:07:24.233Z,100286.50
2024-05-09T14:12:31.846Z,100276.75
2024-05-09T14:17:36.880Z,100264.44
2024-05-09T14:22:42.258Z,100262.16
2024-05-09T14:27:49.848Z,100260.22
2024-05-09T14:32:54.844Z,100259.00
2024-05-09T14:37:59.961Z,100252.94
2024-05-09T14:43:07.938Z,100242.72
2024-05-09T14:48:14.139Z,100239.31
2024-05-09T14:53:19.293Z,100227.84
2024-05-09T14:58:27.350Z,100232.41
2024-05-09T15:03:32.428Z,100220.59
2024-05-09T15:08:37.632Z,100213.47
2024-05-09T15:13:45.111Z,100214.75
2024-05-09T15:18:50.386Z,100209.47
2024-05-09T15:23:55.768Z,100205.16
2024-05-09T15:29:03.282Z,100201.81
2024-05-09T15:34:08.379Z,100196.16
2024-05-09T15:39:13.478Z,100196.38
2024-05-09T15:44:21.273Z,100184.41
2024-05-09T15:49:26.333Z,100190.41
2024-05-09T15:54:31.314Z,100182.28
2024-05-09T15:59:39.008Z,100183.03
2024-05-09T16:04:44.080Z,100172.00
2024-05-09T16:09:49.577Z,100173.72
2024-05-09T16:14:57.117Z,100177.09
2024-05-09T16:20:03.888Z,100162.94
2024-05-09T16:25:12.221Z,100160.38
2024-05-09T16:30:27.880Z,100160.88
2024-05-09T16:35:39.297Z,100166.19
2024-05-09T16:40:44.390Z,100155.75
2024-05-09T16:45:52.019Z,100154.66
2024-05-09T16:50:56.908Z,100153.81
2024-05-09T16:56:02.141Z,100151.00
2024-05-09T17:01:13.841Z,100153.25
2024-05-09T17:06:19.014Z,100149.47
2024-05-09T17:11:23.941Z,100154.81
2024-05-09T17:16:31.625Z,100144.72
2024-05-09T17:21:38.305Z,100141.25
2024-05-09T17:26:43.545Z,100147.56
2024-05-09T17:31:51.373Z,100141.47
2024-05-09T17:36:56.781Z,100144.53
2024-05-09T17:42:01.890Z,100143.09
2024-05-09T17:47:09.455Z,100142.13
2024-05-09T17:52:14.501Z,100137.84
2024-05-09T17:57:19.564Z,100134.47
2024-05-09T18:02:27.227Z,100139.53
2024-05-09T18:07:32.461Z,100140.94
2024-05-09T18:12:37.474Z,100137.28
2024-05-09T18:17:45.327Z,100141.88
2024-05-09T18:22:50.456Z,100132.81
2024-05-09T18:27:55.663Z,100129.03
2024-05-09T18:33:03.597Z,100135.16
2024-05-09T18:38:08.687Z,100133.47
2024-05-09T18:43:13.639Z,100132.50
2024-05-09T18:48:21.993Z,100140.47
2024-05-09T18:53:27.390Z,100135.41
2024-05-09T18:58:32.574Z,100135.47
2024-05-09T19:03:40.826Z,100139.56
2024-05-09T19:08:46.159Z,100144.88
2024-05-09T19:13:51.048Z,100145.13
2024-05-09T19:18:59.228Z,100148.66
2024-05-09T19:24:04.183Z,100153.56
2024-05-09T19:29:09.063Z,100156.28
2024-05-09T19:34:17.000Z,100149.06
2024-05-09T19:39:21.952Z,100161.53
2024-05-09T19:44:26.821Z,100156.53
2024-05-09T19:49:34.499Z,100163.66
2024-05-09T19:54:39.437Z,100156.22
2024-05-09T19:59:44.485Z,100163.13
2024-05-09T20:04:53.715Z,100160.00
2024-05-09T20:09:58.750Z,100163.25
2024-05-09T20:15:03.844Z,100161.81
2024-05-09T20:20:20.294Z,100160.41
2024-05-09T20:25:33.148Z,100168.22
2024-05-09T20:30:38.449Z,100169.88
2024-05-09T20:35:46.286Z,100171.31
2024-05-09T20:40:51.297Z,100166.16
2024-05-09T20:45:56.503Z,100163.91
2024-05-09T20:51:04.079Z,100168.56
2024-05-09T20:56:10.021Z,100173.81
2024-05-09T21:01:15.038Z,100175.97
2024-05-09T21:06:22.758Z,100171.16
2024-05-09T21:11:27.925Z,100171.53
2024-05-09T21:16:34.276Z,100182.66
2024-05-09T21:21:44.498Z,100174.56
2024-05-09T21:26:49.452Z,100174.00
2024-05-09T21:31:54.536Z,100172.19
2024-05-09T21:37:02.032Z,100173.16
2024-05-09T21:42:07.527Z,100172.59
2024-05-09T21:47:12.558Z,100172.38
2024-05-09T21:52:20.211Z,100174.50
2024-05-09T21:57:25.391Z,100165.88
2024-05-09T22:02:30.664Z,100163.78
2024-05-09T22:07:38.313Z,100161.66
2024-05-09T22:12:43.400Z,100170.38
2024-05-09T22:17:48.594Z,100162.53
2024-05-09T22:22:56.874Z,100176.72
2024-05-09T22:28:02.294Z,100175.69
2024-05-09T22:33:09.689Z,100180.81
2024-05-09T22:38:18.712Z,100174.72
2024-05-09T22:43:25.214Z,100181.09
2024-05-09T22:48:30.429Z,100185.22
2024-05-09T22:53:38.031Z,100180.38
2024-05-09T22:58:42.979Z,100178.47
2024-05-09T23:03:48.054Z,100172.66
2024-05-09T23:08:55.639Z,100175.56
2024-05-09T23:14:00.808Z,100173.84
2024-05-09T23:19:05.955Z,100167.53
2024-05-09T23:24:13.534Z,100167.94
2024-05-09T23:29:18.423Z,100161.06
2024-05-09T23:34:23.983Z,100155.06
2024-05-09T23:39:31.514Z,100164.69
2024-05-09T23:44:36.501Z,100158.81
2024-05-09T23:49:41.435Z,100162.84
2024-05-09T23:54:48.965Z,100160.03
2024-05-09T23:59:54.142Z,100149.75
